Time;durP1;ratioP1;P1;durP2;ratioP2;P2;SDS_P1;SDS_P2;PMS_P1;PMS_P2;Temp;Humidity;BMP_temperature;BMP_pressure;BME280_temperature;BME280_humidity;BME280_pressure;Samples;Min_cycle;Max_cycle;Signal;HPM_P1;HPM_P2
2021/05/27 00:01:58;;;;;;;8.40;6.95;;;8.00;99.90;;;;;;6249624;23;20331;-89
2021/05/27 00:04:28;;;;;;;11.93;6.32;;;7.90;99.90;;;;;;6248974;23;20008;-90
2021/05/27 00:07:08;;;;;;;9.43;6.55;;;7.90;99.90;;;;;;6221914;23;20004;-88
2021/05/27 00:09:35;;;;;;;9.27;6.38;;;7.90;99.90;;;;;;6222338;23;20420;-89
2021/05/27 00:12:03;;;;;;;6.15;4.57;;;7.90;99.90;;;;;;6226024;23;20111;-88
2021/05/27 00:14:35;;;;;;;7.68;5.47;;;7.80;99.90;;;;;;6221208;23;20018;-88
2021/05/27 00:17:04;;;;;;;8.30;6.47;;;7.90;99.90;;;;;;6248344;23;20446;-88
2021/05/27 00:19:31;;;;;;;6.47;5.18;;;7.90;99.90;;;;;;6197751;23;20039;-87
2021/05/27 00:21:57;;;;;;;7.53;5.22;;;7.80;99.90;;;;;;6248142;23;20027;-89
2021/05/27 00:24:23;;;;;;;6.90;4.13;;;7.90;99.90;;;;;;6216855;23;20017;-88
2021/05/27 00:26:52;;;;;;;5.93;4.55;;;7.90;99.90;;;;;;6242678;23;20536;-90
2021/05/27 00:29:31;;;;;;;7.75;5.25;;;7.90;99.90;;;;;;6191871;23;20448;-89
2021/05/27 00:32:02;;;;;;;10.10;7.05;;;7.90;99.90;;;;;;6241448;23;20004;-89
2021/05/27 00:34:36;;;;;;;11.15;7.38;;;7.90;99.90;;;;;;6215468;23;20005;-89
2021/05/27 00:37:06;;;;;;;8.00;5.32;;;7.70;99.90;;;;;;6216726;23;20004;-88
2021/05/27 00:39:43;;;;;;;8.50;5.55;;;7.70;99.90;;;;;;6183172;23;20092;-89
2021/05/27 00:42:10;;;;;;;7.57;5.22;;;7.60;99.90;;;;;;6216618;23;20004;-89
2021/05/27 00:45:27;;;;;;;13.65;7.55;;;7.50;99.90;;;;;;6217684;23;19997;-89
2021/05/27 00:48:08;;;;;;;12.52;7.70;;;7.50;99.90;;;;;;6206478;23;20008;-89
2021/05/27 00:50:34;;;;;;;11.20;5.20;;;7.50;99.90;;;;;;6216963;23;20058;-89
2021/05/27 00:53:00;;;;;;;11.68;7.30;;;7.40;99.90;;;;;;6217631;23;20336;-89
2021/05/27 00:55:32;;;;;;;9.15;6.07;;;7.40;99.90;;;;;;6215982;23;20009;-89
2021/05/27 00:58:03;;;;;;;14.55;10.13;;;7.50;99.90;;;;;;6215233;23;20015;-88
2021/05/27 01:00:33;;;;;;;11.90;6.88;;;7.50;99.90;;;;;;6215845;23;20003;-89
2021/05/27 01:03:03;;;;;;;12.07;7.27;;;7.50;99.90;;;;;;6236677;23;20436;-89
2021/05/27 01:05:42;;;;;;;10.75;6.80;;;7.40;99.90;;;;;;6192900;23;20379;-89
2021/05/27 01:08:21;;;;;;;7.47;6.18;;;7.40;99.90;;;;;;6216605;23;20024;-90
2021/05/27 01:10:55;;;;;;;12.02;8.57;;;7.40;99.90;;;;;;6197555;23;20001;-89
2021/05/27 01:13:26;;;;;;;9.20;7.03;;;7.30;99.90;;;;;;6216947;23;20011;-89
2021/05/27 01:16:26;;;;;;;11.43;7.57;;;7.30;99.90;;;;;;6217813;23;20024;-89
2021/05/27 01:19:02;;;;;;;10.38;7.53;;;7.20;99.90;;;;;;6216400;23;20005;-89
2021/05/27 01:21:33;;;;;;;9.05;6.95;;;7.20;99.90;;;;;;6215247;23;20016;-89
2021/05/27 01:27:31;;;;;;;11.23;7.05;;;7.10;99.90;;;;;;6217449;23;20098;-88
2021/05/27 01:29:57;;;;;;;13.43;8.65;;;7.10;99.90;;;;;;6193384;23;20009;-88
2021/05/27 01:32:27;;;;;;;22.13;9.60;;;7.10;99.90;;;;;;6211434;23;20000;-89
2021/05/27 01:34:55;;;;;;;13.73;9.30;;;7.10;99.90;;;;;;6217544;23;20027;-89
2021/05/27 01:37:32;;;;;;;13.73;8.43;;;7.10;99.90;;;;;;6216054;23;20479;-89
2021/05/27 01:39:58;;;;;;;10.77;7.65;;;7.10;99.90;;;;;;6239443;23;20004;-87
2021/05/27 01:43:08;;;;;;;14.80;9.00;;;7.00;99.90;;;;;;6217902;23;20016;-89
2021/05/27 01:45:46;;;;;;;10.20;6.57;;;6.90;99.90;;;;;;6215819;23;20016;-89
2021/05/27 01:48:28;;;;;;;13.52;8.85;;;6.90;99.90;;;;;;6240110;23;20019;-89
2021/05/27 01:51:38;;;;;;;10.40;7.32;;;6.90;99.90;;;;;;6209264;23;20028;-89
2021/05/27 01:54:09;;;;;;;14.98;8.57;;;6.90;99.90;;;;;;6216066;23;20014;-89
2021/05/27 01:56:40;;;;;;;15.10;10.40;;;6.90;99.90;;;;;;6217366;23;20064;-89
2021/05/27 01:59:29;;;;;;;15.65;9.90;;;6.90;99.90;;;;;;6215426;23;20055;-89
2021/05/27 02:01:56;;;;;;;12.57;8.80;;;6.90;99.90;;;;;;6215622;23;20091;-89
2021/05/27 02:04:25;;;;;;;13.73;8.60;;;6.90;99.90;;;;;;6217962;23;20013;-90
2021/05/27 02:06:52;;;;;;;11.93;7.95;;;6.80;99.90;;;;;;6195228;23;20023;-88
2021/05/27 02:09:27;;;;;;;12.77;7.80;;;6.80;99.90;;;;;;6221499;23;20091;-88
2021/05/27 02:11:56;;;;;;;16.80;9.38;;;6.80;99.90;;;;;;6222177;23;20012;-88
2021/05/27 02:14:22;;;;;;;18.17;10.23;;;6.80;99.90;;;;;;6220736;23;20011;-88
2021/05/27 02:16:49;;;;;;;11.40;8.43;;;6.80;99.90;;;;;;6194799;23;20016;-89
2021/05/27 02:19:15;;;;;;;10.63;7.32;;;6.70;99.90;;;;;;6216555;23;20001;-89
2021/05/27 02:21:45;;;;;;;16.33;9.82;;;6.70;99.90;;;;;;6240693;23;20008;-89
2021/05/27 02:24:13;;;;;;;15.32;9.15;;;6.60;99.90;;;;;;6240541;22;20302;-91
2021/05/27 02:26:39;;;;;;;15.60;9.70;;;6.60;99.90;;;;;;6214740;23;20016;-90
2021/05/27 02:29:07;;;;;;;10.75;7.35;;;6.50;99.90;;;;;;6206947;23;20004;-89
2021/05/27 02:31:36;;;;;;;15.65;10.05;;;6.50;99.90;;;;;;6215324;23;20008;-90
2021/05/27 02:34:01;;;;;;;15.75;9.93;;;6.50;99.90;;;;;;6213745;23;20083;-90
2021/05/27 02:36:28;;;;;;;14.32;9.65;;;6.50;99.90;;;;;;6240034;23;20044;-88
2021/05/27 02:38:54;;;;;;;15.15;10.07;;;6.40;99.90;;;;;;6240377;23;20004;-90
2021/05/27 02:41:20;;;;;;;15.00;9.98;;;6.40;99.90;;;;;;6214427;23;20039;-89
2021/05/27 02:43:46;;;;;;;17.05;9.63;;;6.40;99.90;;;;;;6239432;23;20004;-90
2021/05/27 02:46:14;;;;;;;9.60;6.85;;;6.40;99.90;;;;;;6213148;23;20066;-87
2021/05/27 02:48:40;;;;;;;12.18;7.65;;;6.30;99.90;;;;;;6213738;23;20029;-89
2021/05/27 02:51:06;;;;;;;15.10;9.73;;;6.20;99.90;;;;;;6239507;23;20067;-88
2021/05/27 02:53:31;;;;;;;17.65;10.68;;;6.20;99.90;;;;;;6213845;23;20004;-89
2021/05/27 02:55:57;;;;;;;17.73;10.07;;;6.20;99.90;;;;;;6213626;23;20005;-89
2021/05/27 02:58:23;;;;;;;17.02;10.65;;;6.20;99.90;;;;;;6213501;23;20008;-89
2021/05/27 03:00:49;;;;;;;11.55;7.00;;;6.30;99.90;;;;;;6213680;23;20046;-89
2021/05/27 03:03:21;;;;;;;15.68;9.38;;;6.30;99.90;;;;;;6213722;23;20036;-89
2021/05/27 03:05:47;;;;;;;16.77;10.85;;;6.40;99.90;;;;;;6239258;23;20012;-90
2021/05/27 03:08:13;;;;;;;13.75;7.90;;;6.30;99.90;;;;;;6214158;23;20005;-89
2021/05/27 03:10:40;;;;;;;15.07;10.18;;;6.30;99.90;;;;;;6238927;23;20024;-89
2021/05/27 03:13:07;;;;;;;17.73;9.43;;;6.20;99.90;;;;;;6214641;23;20444;-89
2021/05/27 03:15:33;;;;;;;17.23;10.27;;;6.20;99.90;;;;;;6239271;23;20012;-91
2021/05/27 03:18:01;;;;;;;15.02;9.45;;;6.20;99.90;;;;;;6213801;23;20436;-89
2021/05/27 03:20:30;;;;;;;19.27;12.02;;;6.20;99.90;;;;;;6213609;23;20022;-89
2021/05/27 03:23:00;;;;;;;14.90;9.43;;;6.20;99.90;;;;;;6214034;23;20055;-88
2021/05/27 03:25:27;;;;;;;13.73;9.23;;;6.10;99.90;;;;;;6241152;23;20019;-91
2021/05/27 03:27:52;;;;;;;15.93;9.52;;;6.10;99.90;;;;;;6195600;23;20497;-89
2021/05/27 03:30:19;;;;;;;15.13;8.23;;;6.00;99.90;;;;;;6245449;23;20050;-90
2021/05/27 03:32:44;;;;;;;15.52;9.80;;;6.00;99.90;;;;;;6220310;23;20015;-89
2021/05/27 03:35:11;;;;;;;16.42;10.50;;;6.00;99.90;;;;;;6246784;23;20004;-89
2021/05/27 03:37:37;;;;;;;12.70;8.20;;;5.90;99.90;;;;;;6249433;23;20019;-89
2021/05/27 03:40:12;;;;;;;18.17;8.43;;;5.90;99.90;;;;;;6249352;23;20000;-88
2021/05/27 03:42:42;;;;;;;60.85;8.70;;;5.80;99.90;;;;;;6221898;23;20012;-88
2021/05/27 03:45:12;;;;;;;17.60;8.30;;;5.70;99.90;;;;;;6247572;23;20069;-88
2021/05/27 03:47:39;;;;;;;58.17;10.25;;;5.60;99.90;;;;;;6247378;23;20447;-89
2021/05/27 03:50:10;;;;;;;15.65;8.68;;;5.60;99.90;;;;;;6220526;23;20031;-89
2021/05/27 03:52:37;;;;;;;14.27;9.07;;;5.50;99.90;;;;;;6246930;23;19997;-88
2021/05/27 03:55:05;;;;;;;12.13;7.65;;;5.50;99.90;;;;;;6247375;23;20000;-88
2021/05/27 03:57:31;;;;;;;15.30;8.52;;;5.40;99.90;;;;;;6220796;23;20428;-89
2021/05/27 04:02:46;;;;;;;13.93;8.27;;;5.40;99.90;;;;;;6247883;23;20010;-88
2021/05/27 04:08:00;;;;;;;15.40;8.88;;;5.40;99.90;;;;;;6248292;23;20066;-89
2021/05/27 04:10:30;;;;;;;17.20;9.82;;;5.40;99.90;;;;;;6247029;23;20101;-90
2021/05/27 04:12:55;;;;;;;16.00;9.25;;;5.40;99.90;;;;;;6221649;23;20019;-88
2021/05/27 04:15:29;;;;;;;10.90;7.07;;;5.50;99.90;;;;;;6221232;23;20012;-88
2021/05/27 04:17:56;;;;;;;14.35;9.30;;;5.50;99.90;;;;;;6247736;23;20000;-89
2021/05/27 04:20:30;;;;;;;12.43;8.00;;;5.50;99.90;;;;;;6221057;23;20008;-88
2021/05/27 04:22:56;;;;;;;13.13;8.20;;;5.50;99.90;;;;;;6220789;23;20043;-89
2021/05/27 04:25:24;;;;;;;14.70;8.95;;;5.50;99.90;;;;;;6245971;22;20024;-91
2021/05/27 04:27:58;;;;;;;14.30;8.63;;;5.50;99.90;;;;;;6220700;23;20004;-88
2021/05/27 04:30:25;;;;;;;13.57;8.27;;;5.50;99.90;;;;;;6246693;23;20079;-88
2021/05/27 04:32:56;;;;;;;12.35;8.15;;;5.40;99.90;;;;;;6220897;23;20015;-89
2021/05/27 04:35:40;;;;;;;13.43;7.93;;;5.40;99.90;;;;;;6220357;23;20011;-89
2021/05/27 04:38:10;;;;;;;12.30;7.78;;;5.40;99.90;;;;;;6219840;23;20047;-89
2021/05/27 04:40:38;;;;;;;11.85;7.75;;;5.30;99.90;;;;;;6220047;23;20011;-89
2021/05/27 04:43:04;;;;;;;12.43;7.93;;;5.30;99.90;;;;;;6220237;23;20091;-89
2021/05/27 04:45:30;;;;;;;14.23;8.07;;;5.30;99.90;;;;;;6245174;23;20036;-88
2021/05/27 04:47:57;;;;;;;14.38;9.27;;;5.30;99.90;;;;;;6219710;23;20011;-89
2021/05/27 04:50:23;;;;;;;12.40;7.57;;;5.30;99.90;;;;;;6219667;23;20008;-89
2021/05/27 04:52:49;;;;;;;13.38;7.55;;;5.30;99.90;;;;;;6246012;23;20004;-89
2021/05/27 04:55:16;;;;;;;14.60;8.40;;;5.30;99.90;;;;;;6219750;23;20004;-88
2021/05/27 04:57:42;;;;;;;11.32;7.03;;;5.30;99.90;;;;;;6220067;23;20004;-88
2021/05/27 05:00:14;;;;;;;9.77;7.20;;;5.30;99.90;;;;;;6219655;23;20001;-89
2021/05/27 05:02:42;;;;;;;10.43;6.60;;;5.30;99.90;;;;;;6219882;23;20007;-89
2021/05/27 05:05:12;;;;;;;12.93;7.10;;;5.30;99.90;;;;;;6245242;23;20370;-88
2021/05/27 05:07:41;;;;;;;9.95;6.43;;;5.20;99.90;;;;;;6220032;23;20020;-88
2021/05/27 05:10:09;;;;;;;15.73;8.07;;;5.20;99.90;;;;;;6220103;23;20012;-89
2021/05/27 05:12:44;;;;;;;67.88;9.95;;;5.20;99.90;;;;;;6220039;23;20031;-89
2021/05/27 05:15:22;;;;;;;9.32;6.57;;;5.10;99.90;;;;;;6245739;23;20008;-89
2021/05/27 05:17:52;;;;;;;10.25;6.07;;;5.10;99.90;;;;;;6220809;23;20008;-89
2021/05/27 05:20:20;;;;;;;10.85;6.78;;;5.10;99.90;;;;;;6220293;23;20050;-89
2021/05/27 05:22:49;;;;;;;11.25;7.35;;;5.10;99.90;;;;;;6220937;23;20031;-91
2021/05/27 05:25:16;;;;;;;11.68;7.93;;;5.20;99.90;;;;;;6247076;23;20091;-89
2021/05/27 05:27:42;;;;;;;11.43;7.53;;;5.20;99.90;;;;;;6220810;23;20008;-89
2021/05/27 05:30:09;;;;;;;9.88;6.43;;;5.20;99.90;;;;;;6220957;23;20007;-89
2021/05/27 05:32:35;;;;;;;11.73;6.88;;;5.30;99.90;;;;;;6247492;23;20083;-88
2021/05/27 05:35:04;;;;;;;10.63;7.20;;;5.30;99.90;;;;;;6246095;23;20035;-90
2021/05/27 05:37:30;;;;;;;11.70;7.80;;;5.30;99.90;;;;;;6247512;23;20078;-90
2021/05/27 05:39:55;;;;;;;12.55;7.15;;;5.40;99.90;;;;;;6220821;23;20557;-88
2021/05/27 05:42:23;;;;;;;17.83;9.00;;;5.40;99.90;;;;;;6247788;23;20075;-88
2021/05/27 05:45:14;;;;;;;15.02;9.20;;;5.40;99.90;;;;;;5080478;27;1520776;-89
2021/05/27 05:47:40;;;;;;;17.45;8.93;;;5.50;99.90;;;;;;5093801;28;20069;-89
2021/05/27 05:50:11;;;;;;;12.75;8.13;;;5.60;99.90;;;;;;5093020;28;20431;-89
2021/05/27 05:52:36;;;;;;;;;;;5.70;99.90;;;;;;5080784;28;20028;-89
2021/05/27 05:55:06;;;;;;;19.85;11.30;;;5.80;99.90;;;;;;5060489;28;19927;-89
2021/05/27 05:57:36;;;;;;;16.92;10.63;;;5.80;99.90;;;;;;5054067;28;20027;-89
2021/05/27 06:00:14;;;;;;;19.95;10.00;;;5.90;99.90;;;;;;5058778;28;20035;-89
2021/05/27 06:03:07;;;;;;;17.90;8.98;;;6.00;99.90;;;;;;5057425;28;20060;-89
2021/05/27 06:05:36;;;;;;;17.73;8.93;;;6.10;99.90;;;;;;5054086;28;20041;-89
2021/05/27 06:08:07;;;;;;;10.80;6.85;;;6.10;99.90;;;;;;5064778;28;20031;-89
2021/05/27 06:10:34;;;;;;;11.10;6.15;;;6.20;99.90;;;;;;5038308;28;20132;-90
2021/05/27 06:13:05;;;;;;;13.57;7.55;;;6.30;99.90;;;;;;5072925;28;20028;-89
2021/05/27 06:15:31;;;;;;;16.80;8.48;;;6.40;99.90;;;;;;5056459;28;20087;-90
2021/05/27 06:18:00;;;;;;;10.63;7.30;;;6.50;99.90;;;;;;5067518;28;20035;-89
2021/05/27 06:20:27;;;;;;;12.27;7.55;;;6.60;99.90;;;;;;5061717;28;20123;-90
2021/05/27 06:22:58;;;;;;;9.25;5.80;;;6.70;99.90;;;;;;5074098;28;20032;-89
2021/05/27 06:25:27;;;;;;;15.77;9.63;;;6.80;99.90;;;;;;5068846;28;20128;-89
2021/05/27 06:27:55;;;;;;;19.05;10.10;;;6.90;99.90;;;;;;5068753;28;20438;-89
2021/05/27 06:30:23;;;;;;;18.65;10.27;;;7.00;99.90;;;;;;5062179;28;20020;-88
2021/05/27 06:32:49;;;;;;;18.48;10.65;;;7.00;99.90;;;;;;5044593;28;20486;-88
2021/05/27 06:35:15;;;;;;;18.58;10.80;;;7.10;99.90;;;;;;5066624;28;20024;-89
2021/05/27 06:37:44;;;;;;;18.95;10.52;;;7.20;99.90;;;;;;5081542;28;20100;-88
2021/05/27 06:40:18;;;;;;;20.25;11.77;;;7.30;99.90;;;;;;5042023;28;20044;-89
2021/05/27 06:42:50;;;;;;;16.25;9.32;;;7.40;99.90;;;;;;5066335;28;20119;-89
2021/05/27 06:45:18;;;;;;;18.83;11.55;;;7.40;99.90;;;;;;5064088;28;20048;-89
2021/05/27 06:47:44;;;;;;;18.35;10.02;;;7.50;99.90;;;;;;5057866;28;20020;-88
2021/05/27 06:50:10;;;;;;;17.17;9.32;;;7.60;99.90;;;;;;5081391;28;20024;-89
2021/05/27 06:52:36;;;;;;;17.52;9.40;;;7.80;99.90;;;;;;5059609;28;20380;-89
2021/05/27 06:55:04;;;;;;;14.10;8.20;;;7.90;99.90;;;;;;5053908;28;20036;-90
2021/05/27 06:57:30;;;;;;;18.42;6.15;;;8.00;99.90;;;;;;5043489;28;20025;-90
2021/05/27 06:59:56;;;;;;;13.00;7.30;;;8.10;99.90;;;;;;5052484;28;20025;-90
2021/05/27 07:02:22;;;;;;;12.80;7.78;;;8.20;99.90;;;;;;5049157;28;20401;-90
2021/05/27 07:04:47;;;;;;;12.50;7.30;;;8.40;99.90;;;;;;5046298;28;20045;-90
2021/05/27 07:07:13;;;;;;;20.20;7.00;;;8.50;99.90;;;;;;5063628;28;20073;-95
2021/05/27 07:09:40;;;;;;;12.07;6.00;;;8.60;99.90;;;;;;5081116;28;20012;-92
2021/05/27 07:12:07;;;;;;;14.00;5.50;;;8.70;99.90;;;;;;5082300;28;20035;-94
2021/05/27 07:14:33;;;;;;;9.05;5.50;;;8.80;99.90;;;;;;5078743;28;20105;-94
2021/05/27 07:17:04;;;;;;;11.25;6.22;;;8.90;99.90;;;;;;5072496;28;20012;-96
2021/05/27 07:19:31;;;;;;;13.10;6.30;;;9.00;99.90;;;;;;5089412;28;20088;-96
2021/05/27 07:22:02;;;;;;;10.57;6.18;;;9.10;99.90;;;;;;5065788;28;20039;-95
2021/05/27 07:24:28;;;;;;;6.82;5.18;;;9.20;99.90;;;;;;5050591;28;20418;-95
2021/05/27 07:26:55;;;;;;;13.05;5.45;;;9.40;99.90;;;;;;5056467;28;20021;-96
2021/05/27 07:29:20;;;;;;;14.82;5.05;;;9.50;99.90;;;;;;5053383;28;20048;-96
2021/05/27 07:31:46;;;;;;;7.78;4.32;;;9.70;99.90;;;;;;5043410;28;20025;-94
2021/05/27 07:34:12;;;;;;;7.93;4.07;;;9.80;99.90;;;;;;5040808;28;20067;-94
2021/05/27 07:36:37;;;;;;;5.85;3.80;;;10.00;99.90;;;;;;5040094;28;20806;-93
2021/05/27 07:39:03;;;;;;;4.75;2.97;;;10.10;99.90;;;;;;5039071;28;20107;-93
2021/05/27 07:41:29;;;;;;;5.82;3.05;;;10.20;99.90;;;;;;5040602;28;20093;-93
2021/05/27 07:43:55;;;;;;;6.03;3.60;;;10.40;99.90;;;;;;5041176;28;20049;-95
2021/05/27 07:46:21;;;;;;;4.65;3.03;;;10.50;99.90;;;;;;5041808;28;20027;-93
2021/05/27 07:48:47;;;;;;;5.38;2.75;;;10.70;99.90;;;;;;5023366;28;20402;-94
2021/05/27 07:51:13;;;;;;;4.13;2.78;;;10.90;99.90;;;;;;5040131;28;20029;-94
2021/05/27 07:53:38;;;;;;;2.95;2.55;;;10.90;99.90;;;;;;5039744;28;20029;-94
2021/05/27 07:56:05;;;;;;;3.58;2.20;;;11.00;99.90;;;;;;5041265;28;20398;-94
2021/05/27 07:58:31;;;;;;;2.55;2.08;;;11.10;99.90;;;;;;5041253;28;20025;-94
2021/05/27 08:00:57;;;;;;;4.22;2.28;;;11.30;99.90;;;;;;5047019;28;20044;-94
2021/05/27 08:03:23;;;;;;;4.50;2.28;;;11.50;99.90;;;;;;5092591;28;20028;-93
2021/05/27 08:05:48;;;;;;;6.95;1.98;;;11.70;99.90;;;;;;5077411;28;20043;-92
2021/05/27 08:08:23;;;;;;;4.90;2.38;;;11.90;99.90;;;;;;5091348;28;20034;-95
2021/05/27 08:10:49;;;;;;;4.28;2.10;;;12.00;99.90;;;;;;5079229;28;20100;-94
2021/05/27 08:13:30;;;;;;;;;;;;;;;;;;;;;
2021/05/27 08:15:57;;;;;;;4.38;2.33;;;12.40;99.90;;;;;;5097221;22;20064;-96
2021/05/27 08:18:22;;;;;;;2.97;1.65;;;12.50;99.90;;;;;;5071075;28;20025;-93
2021/05/27 08:20:48;;;;;;;4.00;2.15;;;12.60;99.90;;;;;;5077086;28;20028;-94
2021/05/27 08:23:14;;;;;;;2.50;2.10;;;12.70;99.90;;;;;;5062945;28;20506;-92
2021/05/27 08:25:39;;;;;;;3.78;2.35;;;12.80;99.90;;;;;;5071292;28;20031;-94
2021/05/27 08:28:05;;;;;;;5.53;2.03;;;12.90;99.90;;;;;;5077577;28;20047;-94
2021/05/27 08:30:31;;;;;;;4.63;2.30;;;13.10;99.90;;;;;;5069247;28;20024;-93
2021/05/27 08:32:56;;;;;;;4.57;2.90;;;13.20;99.90;;;;;;5057538;28;20032;-96
2021/05/27 08:35:22;;;;;;;4.15;2.40;;;13.30;99.90;;;;;;5059127;28;20057;-94
2021/05/27 08:37:51;;;;;;;3.88;2.00;;;13.60;99.90;;;;;;5058291;28;20047;-95
2021/05/27 08:40:18;;;;;;;4.18;2.47;;;13.70;99.90;;;;;;5049964;28;20032;-95
2021/05/27 08:42:50;;;;;;;4.45;2.20;;;13.90;99.90;;;;;;5042442;28;20020;-95
2021/05/27 08:45:16;;;;;;;9.02;2.50;;;14.00;99.90;;;;;;5072843;28;20031;-95
2021/05/27 08:47:44;;;;;;;3.55;2.63;;;14.20;99.90;;;;;;5057566;28;20017;-95
2021/05/27 08:50:41;;;;;;;3.58;2.63;;;14.40;99.90;;;;;;5060462;28;20059;-96
2021/05/27 08:53:07;;;;;;;3.35;2.08;;;14.50;99.90;;;;;;5065741;28;20031;-94
2021/05/27 08:55:41;;;;;;;5.07;2.00;;;14.70;99.90;;;;;;5058319;28;20104;-94
2021/05/27 08:58:07;;;;;;;3.20;1.85;;;14.90;99.90;;;;;;5060194;28;20123;-94
2021/05/27 09:00:32;;;;;;;5.15;2.25;;;15.00;99.90;;;;;;5060944;28;20035;-94
2021/05/27 09:03:03;;;;;;;4.22;2.28;;;15.10;99.90;;;;;;5052304;28;20117;-95
2021/05/27 09:05:31;;;;;;;2.78;2.20;;;15.10;99.90;;;;;;5054760;28;20033;-96
2021/05/27 09:07:58;;;;;;;4.47;2.17;;;15.20;99.90;;;;;;5075603;28;20028;-93
2021/05/27 09:10:47;;;;;;;2.63;1.73;;;15.30;99.90;;;;;;5052391;28;20029;-95
2021/05/27 09:13:18;;;;;;;2.78;1.40;;;15.40;99.90;;;;;;5054885;28;20037;-96
2021/05/27 09:15:49;;;;;;;1.92;1.60;;;15.40;99.90;;;;;;5039890;28;20047;-93
2021/05/27 09:18:33;;;;;;;4.38;1.70;;;15.30;99.50;;;;;;5039055;28;20025;-96
2021/05/27 09:20:59;;;;;;;3.55;1.90;;;15.20;99.20;;;;;;5047094;28;20033;-96
2021/05/27 09:23:26;;;;;;;4.00;1.60;;;15.20;98.80;;;;;;5045322;28;20029;-95
2021/05/27 09:26:13;;;;;;;3.25;1.88;;;15.10;98.60;;;;;;5039674;28;20060;-94
2021/05/27 09:28:40;;;;;;;2.75;1.92;;;15.10;98.20;;;;;;5021942;28;20064;-93
2021/05/27 09:31:12;;;;;;;2.80;1.70;;;15.10;97.60;;;;;;5037392;28;20474;-94
2021/05/27 09:33:40;;;;;;;3.35;1.83;;;15.10;96.90;;;;;;5037250;28;20044;-95
2021/05/27 09:36:23;;;;;;;3.80;1.80;;;15.20;96.80;;;;;;5038132;28;20152;-95
2021/05/27 09:38:57;;;;;;;2.28;1.73;;;15.40;96.50;;;;;;5036058;28;20048;-95
2021/05/27 09:41:28;;;;;;;3.78;2.15;;;15.60;96.20;;;;;;5038430;28;20367;-94
2021/05/27 09:44:01;;;;;;;7.85;2.50;;;15.70;95.70;;;;;;5039386;28;20506;-95
2021/05/27 09:46:28;;;;;;;2.65;2.22;;;15.80;95.60;;;;;;5055117;28;20093;-95
2021/05/27 09:49:16;;;;;;;5.30;2.50;;;15.90;95.30;;;;;;5059704;28;20087;-96
2021/05/27 09:51:42;;;;;;;4.72;2.53;;;15.90;95.50;;;;;;5043723;28;20032;-96
2021/05/27 09:54:10;;;;;;;5.20;2.60;;;15.90;95.50;;;;;;5052153;28;20033;-95
2021/05/27 09:56:38;;;;;;;4.25;2.80;;;15.80;95.30;;;;;;5023914;28;20033;-95
2021/05/27 09:59:05;;;;;;;4.40;2.70;;;15.70;95.30;;;;;;5027662;28;20033;-95
2021/05/27 10:01:35;;;;;;;4.30;2.63;;;15.60;95.20;;;;;;5042793;28;20037;-94
2021/05/27 10:04:15;;;;;;;3.83;2.25;;;15.50;95.30;;;;;;5015702;28;20113;-94
2021/05/27 10:06:42;;;;;;;7.22;2.72;;;15.50;95.20;;;;;;5025228;28;20504;-94
2021/05/27 10:09:09;;;;;;;5.95;2.58;;;15.50;95.30;;;;;;5022543;28;20026;-94
2021/05/27 10:11:39;;;;;;;4.32;2.35;;;15.40;95.40;;;;;;5025228;28;20387;-94
2021/05/27 10:14:05;;;;;;;4.35;2.95;;;15.50;95.30;;;;;;5045202;28;20403;-95
2021/05/27 10:16:38;;;;;;;5.40;2.85;;;15.50;95.20;;;;;;5044923;28;20105;-94
2021/05/27 10:19:06;;;;;;;3.28;2.30;;;15.50;95.10;;;;;;5059041;28;20041;-94
2021/05/27 10:21:32;;;;;;;7.22;3.47;;;15.50;95.20;;;;;;5038439;28;20036;-94
2021/05/27 10:23:59;;;;;;;4.88;2.88;;;15.50;95.00;;;;;;5039862;28;20041;-95
2021/05/27 10:26:25;;;;;;;4.13;2.78;;;15.50;94.90;;;;;;5040587;28;20044;-94
2021/05/27 10:28:53;;;;;;;3.38;2.30;;;15.50;95.10;;;;;;5037859;28;20033;-94
2021/05/27 10:31:36;;;;;;;5.40;2.58;;;15.60;95.20;;;;;;5040902;28;20017;-96
2021/05/27 10:34:05;;;;;;;4.38;2.30;;;15.60;94.90;;;;;;5043401;28;20541;-95
2021/05/27 10:36:43;;;;;;;3.25;2.38;;;15.70;94.90;;;;;;5041225;28;20040;-95
2021/05/27 10:39:09;;;;;;;6.15;2.60;;;15.70;94.80;;;;;;5042577;28;20025;-95
2021/05/27 10:41:35;;;;;;;2.88;2.17;;;15.70;94.60;;;;;;5041066;28;20485;-94
2021/05/27 10:44:01;;;;;;;5.57;2.40;;;15.80;94.30;;;;;;5041203;28;20155;-94
2021/05/27 10:46:30;;;;;;;3.17;2.03;;;15.80;94.30;;;;;;5040622;28;20048;-95
2021/05/27 10:48:59;;;;;;;4.57;2.42;;;15.80;94.00;;;;;;5060894;28;20021;-95
2021/05/27 10:53:59;;;;;;;2.92;1.77;;;15.90;93.80;;;;;;5057766;28;20055;-93
2021/05/27 10:56:34;;;;;;;4.53;2.20;;;15.90;93.70;;;;;;5066609;28;20029;-94
2021/05/27 10:59:01;;;;;;;3.05;1.90;;;15.90;93.40;;;;;;5075583;28;20033;-95
2021/05/27 11:01:36;;;;;;;2.90;1.85;;;16.00;93.50;;;;;;5077708;28;20036;-96
2021/05/27 11:04:06;;;;;;;1.83;1.58;;;16.00;93.30;;;;;;5044484;28;20063;-94
2021/05/27 11:06:38;;;;;;;4.88;2.03;;;16.10;93.10;;;;;;5039979;28;20142;-95
2021/05/27 11:09:10;;;;;;;3.33;1.70;;;16.10;92.70;;;;;;5040214;28;20124;-96
2021/05/27 11:11:37;;;;;;;3.70;1.77;;;16.10;92.60;;;;;;5040446;28;20037;-92
2021/05/27 11:14:15;;;;;;;1.83;1.60;;;16.10;92.50;;;;;;5038370;28;20029;-93
2021/05/27 11:17:11;;;;;;;2.60;2.20;;;16.20;92.20;;;;;;5046536;28;20525;-95
2021/05/27 11:19:57;;;;;;;1.98;1.70;;;16.30;91.80;;;;;;5043491;28;20056;-94
2021/05/27 11:25:14;;;;;;;3.60;2.15;;;16.30;91.40;;;;;;5060853;28;20413;-94
2021/05/27 11:28:07;;;;;;;2.30;2.00;;;16.30;91.30;;;;;;5037481;28;20036;-96
2021/05/27 11:30:39;;;;;;;3.25;2.13;;;16.30;91.10;;;;;;5039143;28;20085;-94
2021/05/27 11:33:14;;;;;;;3.28;2.00;;;16.40;91.10;;;;;;5038999;28;20028;-94
2021/05/27 11:35:42;;;;;;;3.92;1.83;;;16.50;90.80;;;;;;5035936;28;20021;-95
2021/05/27 11:38:14;;;;;;;3.08;2.35;;;16.50;90.80;;;;;;5038525;28;20055;-93
2021/05/27 11:40:45;;;;;;;4.07;2.22;;;16.50;90.80;;;;;;5037008;28;20051;-96
2021/05/27 11:43:12;;;;;;;2.92;2.20;;;16.50;90.80;;;;;;5039663;28;20065;-95
2021/05/27 11:45:40;;;;;;;3.83;2.00;;;16.60;90.80;;;;;;5039520;28;20025;-94
2021/05/27 11:48:38;;;;;;;4.00;1.90;;;16.60;90.60;;;;;;5039528;28;20059;-93
2021/05/27 11:51:12;;;;;;;5.38;2.42;;;16.70;90.60;;;;;;5037748;28;20063;-96
2021/05/27 11:53:50;;;;;;;5.07;2.42;;;16.70;90.60;;;;;;5039713;28;20024;-96
2021/05/27 11:56:31;;;;;;;4.55;2.67;;;16.70;90.40;;;;;;5038969;28;20044;-96
2021/05/27 11:58:58;;;;;;;2.75;2.47;;;16.70;90.20;;;;;;5038840;28;20091;-95
2021/05/27 12:01:26;;;;;;;4.43;3.20;;;16.60;90.30;;;;;;5039661;28;20482;-95
2021/05/27 12:04:23;;;;;;;5.00;3.25;;;16.60;90.40;;;;;;5039763;28;20036;-95
2021/05/27 12:06:53;;;;;;;5.38;3.83;;;16.60;90.20;;;;;;5040101;28;20033;-96
2021/05/27 12:09:46;;;;;;;3.42;3.13;;;16.60;90.30;;;;;;5041874;28;20037;-94
2021/05/27 12:12:20;;;;;;;5.72;3.63;;;16.50;90.30;;;;;;5060030;28;20029;-95
2021/05/27 12:14:55;;;;;;;5.15;3.78;;;16.60;90.30;;;;;;5040946;28;20491;-95
2021/05/27 12:17:45;;;;;;;4.80;3.28;;;16.70;90.30;;;;;;5040831;28;20241;-94
2021/05/27 12:20:20;;;;;;;3.92;3.28;;;16.70;90.10;;;;;;5043361;28;20567;-93
2021/05/27 12:23:02;;;;;;;4.53;3.33;;;16.90;90.10;;;;;;5040209;28;20032;-93
2021/05/27 12:25:45;;;;;;;4.45;3.05;;;17.10;90.00;;;;;;5019743;28;20075;-93
2021/05/27 12:28:15;;;;;;;2.70;2.40;;;17.20;89.40;;;;;;5019075;28;20030;-93
2021/05/27 12:31:01;;;;;;;3.90;2.30;;;17.40;88.40;;;;;;5017784;28;20098;-95
2021/05/27 12:33:30;;;;;;;5.22;2.20;;;17.40;86.50;;;;;;5017836;28;20041;-94
2021/05/27 12:36:02;;;;;;;3.50;2.40;;;17.50;86.60;;;;;;5018101;28;20432;-95
2021/05/27 12:38:29;;;;;;;4.63;2.28;;;17.60;86.30;;;;;;5018105;28;20022;-94
2021/05/27 12:41:06;;;;;;;3.20;2.15;;;17.70;85.80;;;;;;5035119;28;20021;-94
2021/05/27 12:43:37;;;;;;;3.10;1.92;;;17.70;85.10;;;;;;5037989;28;20049;-95
2021/05/27 12:46:05;;;;;;;1.95;1.65;;;17.80;84.80;;;;;;5037995;28;20497;-93
2021/05/27 12:48:32;;;;;;;3.40;1.63;;;17.90;84.30;;;;;;5038133;28;20032;-92
2021/05/27 12:51:04;;;;;;;2.78;1.85;;;18.00;84.10;;;;;;5036272;28;20029;-95
2021/05/27 12:53:33;;;;;;;7.40;2.17;;;18.00;83.40;;;;;;5036837;28;20029;-94
2021/05/27 12:56:12;;;;;;;2.85;2.17;;;18.10;82.70;;;;;;5037037;28;20440;-94
2021/05/27 12:58:40;;;;;;;2.78;1.88;;;18.20;81.30;;;;;;5037689;28;20433;-94
2021/05/27 13:01:06;;;;;;;3.33;1.88;;;18.10;79.80;;;;;;5037634;28;20025;-93
2021/05/27 13:03:49;;;;;;;4.53;1.92;;;18.20;80.70;;;;;;5056042;28;20037;-93
2021/05/27 13:06:22;;;;;;;3.53;1.70;;;18.20;79.20;;;;;;5037727;28;20498;-94
2021/05/27 13:08:57;;;;;;;2.05;1.80;;;18.20;79.00;;;;;;5055780;28;20076;-94
2021/05/27 13:11:46;;;;;;;2.90;1.83;;;18.20;79.00;;;;;;5021291;28;20036;-94
2021/05/27 13:14:17;;;;;;;2.17;1.85;;;18.30;79.10;;;;;;5037425;28;20078;-96
2021/05/27 13:16:54;;;;;;;6.53;2.00;;;18.50;79.10;;;;;;5037666;28;20075;-93
2021/05/27 13:19:26;;;;;;;2.53;1.50;;;18.70;78.60;;;;;;5036871;28;20083;-92
2021/05/27 13:21:58;;;;;;;2.47;1.55;;;18.80;77.60;;;;;;5037167;28;20025;-94